Highgate, Vermont
Current Conditions -  °F | °C
As of 1:15 AM on Thursday 29 Jan 2015 (Local Time) from KFSO Reporting Station
Clear Clear  
Wind Chill: -10°   Ceiling: Unl
Heat Index:   Visibility: 10mi
Dew Point: -7°   Wind: 5mph
Humidity: 71%   Direction: 130°SE
Pressure: 30.31"   Gusts: NA
Location:  44.958°N, 72.9958°W
Report Text: KFSO 290615Z AUTO 13004KT 10SM CLR M18/M22 A3031 RMK AO2 T11761217
Loading
Personal Weather Stations






























Interactive Weather Map New forecast layout! Learn more

10-Day Weather Forecast

Advertisements
Track Severe Weather on mobile